sensor_id;sensor_type;location;lat;lon;timestamp;pressure;altitude;pressure_sealevel;temperature;humidity
61205;BME280;47068;55.780;37.520;2023-05-29T00:00:33;100159.44;;;11.59;64.73
61205;BME280;47068;55.780;37.520;2023-05-29T00:02:58;100156.78;;;11.59;65.08
61205;BME280;47068;55.780;37.520;2023-05-29T00:05:24;100165.94;;;11.64;65.31
61205;BME280;47068;55.780;37.520;2023-05-29T00:07:49;100170.78;;;11.69;64.95
61205;BME280;47068;55.780;37.520;2023-05-29T00:10:16;100158.59;;;11.58;65.11
61205;BME280;47068;55.780;37.520;2023-05-29T00:12:41;100176.13;;;11.69;65.00
61205;BME280;47068;55.780;37.520;2023-05-29T00:15:08;100173.13;;;11.64;65.14
61205;BME280;47068;55.780;37.520;2023-05-29T00:17:35;100180.06;;;11.57;65.07
61205;BME280;47068;55.780;37.520;2023-05-29T00:20:02;100179.41;;;11.55;64.81
61205;BME280;47068;55.780;37.520;2023-05-29T00:22:45;100160.88;;;11.45;65.43
61205;BME280;47068;55.780;37.520;2023-05-29T00:25:11;100164.72;;;11.51;65.49
61205;BME280;47068;55.780;37.520;2023-05-29T00:27:36;100177.69;;;11.45;65.28
61205;BME280;47068;55.780;37.520;2023-05-29T00:30:03;100180.16;;;11.39;65.93
61205;BME280;47068;55.780;37.520;2023-05-29T00:32:28;100179.59;;;11.35;65.74
61205;BME280;47068;55.780;37.520;2023-05-29T00:34:54;100184.69;;;11.47;65.12
61205;BME280;47068;55.780;37.520;2023-05-29T00:37:21;100158.94;;;11.29;66.34
61205;BME280;47068;55.780;37.520;2023-05-29T00:39:49;100171.63;;;11.35;65.89
61205;BME280;47068;55.780;37.520;2023-05-29T00:42:15;100170.56;;;11.28;65.33
61205;BME280;47068;55.780;37.520;2023-05-29T00:44:41;100186.75;;;11.35;65.65
61205;BME280;47068;55.780;37.520;2023-05-29T00:47:06;100185.28;;;11.32;66.02
61205;BME280;47068;55.780;37.520;2023-05-29T00:49:34;100174.19;;;11.19;65.90
61205;BME280;47068;55.780;37.520;2023-05-29T00:52:01;100166.84;;;11.13;66.25
61205;BME280;47068;55.780;37.520;2023-05-29T00:54:29;100182.34;;;11.18;66.60
61205;BME280;47068;55.780;37.520;2023-05-29T00:56:59;100183.31;;;11.17;66.51
61205;BME280;47068;55.780;37.520;2023-05-29T00:59:29;100166.09;;;11.03;66.81
61205;BME280;47068;55.780;37.520;2023-05-29T01:01:55;100175.38;;;10.99;66.65
61205;BME280;47068;55.780;37.520;2023-05-29T01:04:22;100186.75;;;11.09;66.91
61205;BME280;47068;55.780;37.520;2023-05-29T01:06:49;100185.41;;;11.05;67.20
61205;BME280;47068;55.780;37.520;2023-05-29T01:09:15;100198.41;;;11.08;67.31
61205;BME280;47068;55.780;37.520;2023-05-29T01:14:40;100188.22;;;11.03;67.03
61205;BME280;47068;55.780;37.520;2023-05-29T01:24:58;100195.72;;;11.08;67.39
61205;BME280;47068;55.780;37.520;2023-05-29T01:34:13;100195.44;;;11.11;67.11
61205;BME280;47068;55.780;37.520;2023-05-29T01:36:38;100198.88;;;11.03;67.47
61205;BME280;47068;55.780;37.520;2023-05-29T01:39:05;100207.38;;;11.07;67.39
61205;BME280;47068;55.780;37.520;2023-05-29T01:41:31;100204.94;;;11.14;66.82
61205;BME280;47068;55.780;37.520;2023-05-29T01:43:58;100184.72;;;11.03;67.29
61205;BME280;47068;55.780;37.520;2023-05-29T01:46:24;100204.72;;;11.07;67.06
61205;BME280;47068;55.780;37.520;2023-05-29T01:48:51;100205.03;;;11.04;66.92
61205;BME280;47068;55.780;37.520;2023-05-29T01:51:18;100212.41;;;11.10;67.03
61205;BME280;47068;55.780;37.520;2023-05-29T01:53:43;100190.75;;;11.05;67.67
61205;BME280;47068;55.780;37.520;2023-05-29T01:56:09;100189.97;;;10.95;67.25
61205;BME280;47068;55.780;37.520;2023-05-29T01:58:36;100201.00;;;11.00;67.21
61205;BME280;47068;55.780;37.520;2023-05-29T02:01:02;100190.75;;;11.05;67.64
61205;BME280;47068;55.780;37.520;2023-05-29T02:03:31;100203.09;;;11.14;67.40
61205;BME280;47068;55.780;37.520;2023-05-29T02:05:57;100201.69;;;11.02;67.80
61205;BME280;47068;55.780;37.520;2023-05-29T02:08:23;100200.75;;;11.11;67.81
61205;BME280;47068;55.780;37.520;2023-05-29T02:10:49;100201.28;;;11.15;67.63
61205;BME280;47068;55.780;37.520;2023-05-29T02:13:15;100201.28;;;11.15;67.62
61205;BME280;47068;55.780;37.520;2023-05-29T02:15:41;100215.19;;;11.26;67.82
61205;BME280;47068;55.780;37.520;2023-05-29T02:18:10;100222.16;;;11.27;67.71
61205;BME280;47068;55.780;37.520;2023-05-29T02:20:39;100215.84;;;11.28;66.77
61205;BME280;47068;55.780;37.520;2023-05-29T02:23:04;100210.59;;;11.36;66.84
61205;BME280;47068;55.780;37.520;2023-05-29T02:25:30;100210.59;;;11.36;66.83
61205;BME280;47068;55.780;37.520;2023-05-29T02:27:55;100209.75;;;11.36;66.69
61205;BME280;47068;55.780;37.520;2023-05-29T02:30:21;100215.81;;;11.46;66.73
61205;BME280;47068;55.780;37.520;2023-05-29T02:32:46;100220.09;;;11.65;66.23
61205;BME280;47068;55.780;37.520;2023-05-29T02:35:12;100218.13;;;11.67;65.11
61205;BME280;47068;55.780;37.520;2023-05-29T02:37:42;100223.66;;;11.73;65.31
61205;BME280;47068;55.780;37.520;2023-05-29T02:40:08;100218.03;;;11.76;65.24
61205;BME280;47068;55.780;37.520;2023-05-29T02:42:34;100209.28;;;11.66;64.79
61205;BME280;47068;55.780;37.520;2023-05-29T02:44:59;100227.84;;;11.76;64.75
61205;BME280;47068;55.780;37.520;2023-05-29T02:47:25;100221.91;;;11.82;64.00
61205;BME280;47068;55.780;37.520;2023-05-29T02:49:50;100223.09;;;11.88;64.38
61205;BME280;47068;55.780;37.520;2023-05-29T02:52:16;100228.78;;;11.93;64.24
61205;BME280;47068;55.780;37.520;2023-05-29T02:54:41;100220.09;;;11.91;64.37
61205;BME280;47068;55.780;37.520;2023-05-29T02:57:07;100225.31;;;12.00;64.27
61205;BME280;47068;55.780;37.520;2023-05-29T02:59:32;100226.84;;;12.11;63.86
61205;BME280;47068;55.780;37.520;2023-05-29T03:01:57;100231.34;;;12.10;64.19
61205;BME280;47068;55.780;37.520;2023-05-29T03:04:23;100231.53;;;12.17;63.52
61205;BME280;47068;55.780;37.520;2023-05-29T03:06:48;100245.59;;;12.27;63.60
61205;BME280;47068;55.780;37.520;2023-05-29T03:09:14;100223.56;;;12.25;63.21
61205;BME280;47068;55.780;37.520;2023-05-29T03:11:42;100231.09;;;12.30;62.48
61205;BME280;47068;55.780;37.520;2023-05-29T03:14:07;100225.91;;;12.28;62.97
61205;BME280;47068;55.780;37.520;2023-05-29T03:16:34;100242.63;;;12.46;62.63
61205;BME280;47068;55.780;37.520;2023-05-29T03:19:01;100240.50;;;12.50;62.99
61205;BME280;47068;55.780;37.520;2023-05-29T03:21:26;100247.84;;;12.56;63.04
61205;BME280;47068;55.780;37.520;2023-05-29T03:23:52;100243.84;;;12.60;63.17
61205;BME280;47068;55.780;37.520;2023-05-29T03:26:17;100255.53;;;12.67;63.25
61205;BME280;47068;55.780;37.520;2023-05-29T03:28:43;100255.22;;;12.70;63.81
61205;BME280;47068;55.780;37.520;2023-05-29T03:31:08;100257.53;;;12.73;63.59
61205;BME280;47068;55.780;37.520;2023-05-29T03:33:35;100257.09;;;12.86;63.02
61205;BME280;47068;55.780;37.520;2023-05-29T03:36:01;100263.25;;;12.94;61.93
61205;BME280;47068;55.780;37.520;2023-05-29T03:38:26;100258.94;;;13.01;61.48
61205;BME280;47068;55.780;37.520;2023-05-29T03:40:52;100248.94;;;13.12;60.24
61205;BME280;47068;55.780;37.520;2023-05-29T03:43:17;100254.13;;;13.21;59.46
61205;BME280;47068;55.780;37.520;2023-05-29T03:45:42;100225.59;;;13.14;59.96
61205;BME280;47068;55.780;37.520;2023-05-29T03:48:08;100234.56;;;13.29;59.56
61205;BME280;47068;55.780;37.520;2023-05-29T03:50:33;100255.94;;;13.45;59.48
61205;BME280;47068;55.780;37.520;2023-05-29T03:52:59;100254.59;;;13.57;59.60
61205;BME280;47068;55.780;37.520;2023-05-29T03:55:26;100265.28;;;13.65;58.85
61205;BME280;47068;55.780;37.520;2023-05-29T03:57:53;100258.25;;;13.72;57.66
61205;BME280;47068;55.780;37.520;2023-05-29T04:00:19;100254.38;;;13.83;57.68
61205;BME280;47068;55.780;37.520;2023-05-29T04:02:44;100270.06;;;14.02;56.83
61205;BME280;47068;55.780;37.520;2023-05-29T04:05:10;100267.53;;;14.09;56.44
61205;BME280;47068;55.780;37.520;2023-05-29T04:07:38;100273.81;;;14.24;55.67
61205;BME280;47068;55.780;37.520;2023-05-29T04:10:04;100272.94;;;14.40;55.69
61205;BME280;47068;55.780;37.520;2023-05-29T04:12:30;100271.72;;;14.50;54.55
61205;BME280;47068;55.780;37.520;2023-05-29T04:14:57;100257.34;;;14.51;54.27
61205;BME280;47068;55.780;37.520;2023-05-29T04:17:22;100268.94;;;14.67;53.42
61205;BME280;47068;55.780;37.520;2023-05-29T04:19:47;100268.91;;;14.75;53.21
61205;BME280;47068;55.780;37.520;2023-05-29T04:22:13;100268.69;;;14.84;52.13
61205;BME280;47068;55.780;37.520;2023-05-29T04:24:39;100270.41;;;15.00;51.59
61205;BME280;47068;55.780;37.520;2023-05-29T04:27:05;100273.19;;;15.29;51.47
61205;BME280;47068;55.780;37.520;2023-05-29T04:29:31;100273.97;;;15.61;51.17
61205;BME280;47068;55.780;37.520;2023-05-29T04:31:59;100268.50;;;15.84;50.70
61205;BME280;47068;55.780;37.520;2023-05-29T04:34:28;100264.91;;;15.91;50.41
61205;BME280;47068;55.780;37.520;2023-05-29T04:36:56;100250.47;;;15.92;50.14
61205;BME280;47068;55.780;37.520;2023-05-29T04:39:23;100267.03;;;16.25;48.53
61205;BME280;47068;55.780;37.520;2023-05-29T04:41:50;100283.59;;;16.58;48.19
61205;BME280;47068;55.780;37.520;2023-05-29T04:44:17;100278.91;;;16.81;48.82
61205;BME280;47068;55.780;37.520;2023-05-29T04:46:42;100282.09;;;17.06;48.10
61205;BME280;47068;55.780;37.520;2023-05-29T04:49:10;100279.94;;;17.02;47.50
61205;BME280;47068;55.780;37.520;2023-05-29T04:51:35;100281.19;;;17.20;46.83
61205;BME280;47068;55.780;37.520;2023-05-29T04:54:01;100272.28;;;17.20;46.36
61205;BME280;47068;55.780;37.520;2023-05-29T04:56:28;100275.69;;;17.28;46.49
61205;BME280;47068;55.780;37.520;2023-05-29T04:58:53;100283.75;;;17.56;45.55
61205;BME280;47068;55.780;37.520;2023-05-29T05:01:19;100282.19;;;18.24;43.48
61205;BME280;47068;55.780;37.520;2023-05-29T05:03:45;100268.81;;;18.98;42.18
61205;BME280;47068;55.780;37.520;2023-05-29T05:06:11;100282.50;;;20.22;39.53
61205;BME280;47068;55.780;37.520;2023-05-29T05:08:38;100280.66;;;20.73;38.22
61205;BME280;47068;55.780;37.520;2023-05-29T05:11:03;100299.16;;;20.76;38.25
61205;BME280;47068;55.780;37.520;2023-05-29T05:13:29;100290.06;;;20.64;38.49
61205;BME280;47068;55.780;37.520;2023-05-29T05:15:54;100281.88;;;20.77;38.24
61205;BME280;47068;55.780;37.520;2023-05-29T05:18:20;100289.38;;;20.75;37.95
61205;BME280;47068;55.780;37.520;2023-05-29T05:20:46;100289.44;;;20.62;38.14
61205;BME280;47068;55.780;37.520;2023-05-29T05:23:11;100285.13;;;20.48;39.34
61205;BME280;47068;55.780;37.520;2023-05-29T05:25:37;100281.56;;;20.54;38.76
61205;BME280;47068;55.780;37.520;2023-05-29T05:28:04;100272.75;;;20.72;38.71
61205;BME280;47068;55.780;37.520;2023-05-29T05:30:29;100269.13;;;20.53;38.65
61205;BME280;47068;55.780;37.520;2023-05-29T05:32:55;100279.53;;;20.43;38.93
61205;BME280;47068;55.780;37.520;2023-05-29T05:35:21;100281.53;;;20.61;40.16
61205;BME280;47068;55.780;37.520;2023-05-29T05:37:46;100284.66;;;21.02;37.56
61205;BME280;47068;55.780;37.520;2023-05-29T05:40:12;100281.78;;;21.85;34.91
61205;BME280;47068;55.780;37.520;2023-05-29T05:42:38;100281.25;;;22.86;33.31
61205;BME280;47068;55.780;37.520;2023-05-29T05:45:06;100266.34;;;23.60;30.86
61205;BME280;47068;55.780;37.520;2023-05-29T05:47:32;100277.84;;;23.97;29.82
61205;BME280;47068;55.780;37.520;2023-05-29T05:49:58;100261.34;;;24.50;29.58
61205;BME280;47068;55.780;37.520;2023-05-29T05:52:24;100283.13;;;24.78;29.09
61205;BME280;47068;55.780;37.520;2023-05-29T05:54:51;100282.63;;;24.41;30.79
61205;BME280;47068;55.780;37.520;2023-05-29T05:57:17;100271.00;;;24.06;30.85
61205;BME280;47068;55.780;37.520;2023-05-29T05:59:43;100270.16;;;23.93;30.63
61205;BME280;47068;55.780;37.520;2023-05-29T06:02:09;100284.44;;;23.89;29.18
61205;BME280;47068;55.780;37.520;2023-05-29T06:04:38;100279.13;;;24.06;28.84
61205;BME280;47068;55.780;37.520;2023-05-29T06:07:03;100275.34;;;24.30;28.83
61205;BME280;47068;55.780;37.520;2023-05-29T06:09:29;100273.44;;;24.70;27.33
61205;BME280;47068;55.780;37.520;2023-05-29T06:11:54;100264.38;;;25.22;26.16
61205;BME280;47068;55.780;37.520;2023-05-29T06:14:20;100261.81;;;26.86;24.33
61205;BME280;47068;55.780;37.520;2023-05-29T06:16:45;100285.19;;;28.26;23.90
61205;BME280;47068;55.780;37.520;2023-05-29T06:19:17;100272.81;;;28.76;22.52
61205;BME280;47068;55.780;37.520;2023-05-29T06:21:50;100277.81;;;29.04;21.82
61205;BME280;47068;55.780;37.520;2023-05-29T06:24:15;100278.41;;;29.57;21.39
61205;BME280;47068;55.780;37.520;2023-05-29T06:26:41;100277.88;;;29.80;20.06
61205;BME280;47068;55.780;37.520;2023-05-29T06:29:06;100265.81;;;29.66;20.83
61205;BME280;47068;55.780;37.520;2023-05-29T06:31:32;100277.84;;;30.00;19.71
61205;BME280;47068;55.780;37.520;2023-05-29T06:33:59;100260.16;;;30.42;18.35
61205;BME280;47068;55.780;37.520;2023-05-29T06:36:24;100276.81;;;31.15;17.51
61205;BME280;47068;55.780;37.520;2023-05-29T06:38:51;100283.06;;;31.93;17.05
61205;BME280;47068;55.780;37.520;2023-05-29T06:41:17;100276.63;;;32.93;15.51
61205;BME280;47068;55.780;37.520;2023-05-29T06:43:43;100286.78;;;34.00;14.82
61205;BME280;47068;55.780;37.520;2023-05-29T06:46:09;100276.81;;;35.75;13.46
61205;BME280;47068;55.780;37.520;2023-05-29T06:48:35;100287.63;;;38.02;12.20
61205;BME280;47068;55.780;37.520;2023-05-29T06:51:01;100280.44;;;39.40;11.30
61205;BME280;47068;55.780;37.520;2023-05-29T06:53:34;100281.09;;;40.51;10.51
61205;BME280;47068;55.780;37.520;2023-05-29T06:56:00;100269.19;;;41.30;9.91
61205;BME280;47068;55.780;37.520;2023-05-29T06:58:26;100274.00;;;40.78;10.11
61205;BME280;47068;55.780;37.520;2023-05-29T07:04:13;100264.88;;;37.36;11.86
61205;BME280;47068;55.780;37.520;2023-05-29T07:06:39;100272.44;;;36.53;12.13
61205;BME280;47068;55.780;37.520;2023-05-29T07:09:04;100272.53;;;36.22;11.59
61205;BME280;47068;55.780;37.520;2023-05-29T07:11:30;100273.81;;;36.25;12.55
61205;BME280;47068;55.780;37.520;2023-05-29T07:13:56;100270.06;;;36.69;12.23
61205;BME280;47068;55.780;37.520;2023-05-29T07:16:21;100275.28;;;36.79;11.92
61205;BME280;47068;55.780;37.520;2023-05-29T07:18:47;100269.75;;;37.57;11.89
61205;BME280;47068;55.780;37.520;2023-05-29T07:21:12;100269.56;;;39.92;10.01
61205;BME280;47068;55.780;37.520;2023-05-29T07:23:39;100266.09;;;41.91;8.97
61205;BME280;47068;55.780;37.520;2023-05-29T07:26:04;100258.09;;;43.91;7.78
61205;BME280;47068;55.780;37.520;2023-05-29T07:28:30;100261.53;;;45.83;6.97
61205;BME280;47068;55.780;37.520;2023-05-29T07:30:56;100250.00;;;47.19;5.39
61205;BME280;47068;55.780;37.520;2023-05-29T07:33:21;100260.47;;;47.15;5.68
61205;BME280;47068;55.780;37.520;2023-05-29T07:35:50;100260.63;;;47.93;6.42
61205;BME280;47068;55.780;37.520;2023-05-29T07:38:15;100257.06;;;48.06;6.04
61205;BME280;47068;55.780;37.520;2023-05-29T07:40:41;100244.13;;;48.09;5.50
61205;BME280;47068;55.780;37.520;2023-05-29T07:43:06;100251.78;;;48.47;5.37
61205;BME280;47068;55.780;37.520;2023-05-29T07:45:32;100238.03;;;48.35;5.15
61205;BME280;47068;55.780;37.520;2023-05-29T07:47:58;100232.78;;;48.51;5.16
61205;BME280;47068;55.780;37.520;2023-05-29T07:50:23;100234.69;;;48.90;4.46
61205;BME280;47068;55.780;37.520;2023-05-29T07:52:49;100236.41;;;47.49;4.81
61205;BME280;47068;55.780;37.520;2023-05-29T07:55:15;100239.22;;;47.42;4.76
61205;BME280;47068;55.780;37.520;2023-05-29T07:57:41;100228.22;;;47.01;5.20
61205;BME280;47068;55.780;37.520;2023-05-29T08:00:07;100241.47;;;46.29;5.77
61205;BME280;47068;55.780;37.520;2023-05-29T08:02:34;100237.69;;;46.10;4.96
61205;BME280;47068;55.780;37.520;2023-05-29T08:05:02;100242.44;;;45.59;5.59
61205;BME280;47068;55.780;37.520;2023-05-29T08:07:28;100240.97;;;44.45;5.81
61205;BME280;47068;55.780;37.520;2023-05-29T08:09:54;100222.69;;;43.18;7.16
61205;BME280;47068;55.780;37.520;2023-05-29T08:12:19;100233.41;;;40.80;8.23
61205;BME280;47068;55.780;37.520;2023-05-29T08:14:45;100232.50;;;38.51;9.63
61205;BME280;47068;55.780;37.520;2023-05-29T08:17:11;100238.06;;;36.63;11.22
61205;BME280;47068;55.780;37.520;2023-05-29T08:19:36;100227.97;;;35.04;11.96
61205;BME280;47068;55.780;37.520;2023-05-29T08:22:02;100237.84;;;33.41;12.82
61205;BME280;47068;55.780;37.520;2023-05-29T08:24:27;100236.13;;;32.08;13.63
61205;BME280;47068;55.780;37.520;2023-05-29T08:26:53;100243.84;;;31.15;14.08
61205;BME280;47068;55.780;37.520;2023-05-29T08:29:19;100234.16;;;30.19;15.56
61205;BME280;47068;55.780;37.520;2023-05-29T08:31:45;100240.56;;;29.28;16.88
61205;BME280;47068;55.780;37.520;2023-05-29T08:34:11;100237.09;;;28.50;17.24
61205;BME280;47068;55.780;37.520;2023-05-29T08:36:36;100219.91;;;28.03;17.47
61205;BME280;47068;55.780;37.520;2023-05-29T08:39:02;100241.63;;;27.77;17.86
61205;BME280;47068;55.780;37.520;2023-05-29T08:41:34;100234.06;;;27.21;18.76
61205;BME280;47068;55.780;37.520;2023-05-29T08:44:04;100229.09;;;26.64;20.10
61205;BME280;47068;55.780;37.520;2023-05-29T08:46:31;100234.56;;;26.20;20.00
61205;BME280;47068;55.780;37.520;2023-05-29T08:48:58;100237.09;;;26.05;19.81
61205;BME280;47068;55.780;37.520;2023-05-29T08:51:30;100236.22;;;25.49;20.77
61205;BME280;47068;55.780;37.520;2023-05-29T08:53:56;100220.06;;;25.09;22.48
61205;BME280;47068;55.780;37.520;2023-05-29T08:56:22;100240.22;;;24.97;21.98
61205;BME280;47068;55.780;37.520;2023-05-29T08:58:48;100231.97;;;24.92;22.76
61205;BME280;47068;55.780;37.520;2023-05-29T09:01:15;100237.66;;;24.90;21.07
61205;BME280;47068;55.780;37.520;2023-05-29T09:03:41;100228.25;;;24.69;21.84
61205;BME280;47068;55.780;37.520;2023-05-29T09:06:07;100234.97;;;24.50;21.74
61205;BME280;47068;55.780;37.520;2023-05-29T09:08:34;100232.56;;;24.25;21.15
61205;BME280;47068;55.780;37.520;2023-05-29T09:11:00;100220.16;;;23.94;21.74
61205;BME280;47068;55.780;37.520;2023-05-29T09:13:25;100204.72;;;23.72;22.22
61205;BME280;47068;55.780;37.520;2023-05-29T09:16:02;100213.81;;;23.77;22.20
61205;BME280;47068;55.780;37.520;2023-05-29T09:18:32;100205.44;;;23.55;22.90
61205;BME280;47068;55.780;37.520;2023-05-29T09:20:58;100217.47;;;23.60;22.72
61205;BME280;47068;55.780;37.520;2023-05-29T09:23:25;100208.88;;;23.51;22.76
61205;BME280;47068;55.780;37.520;2023-05-29T09:25:52;100215.09;;;23.51;23.30
61205;BME280;47068;55.780;37.520;2023-05-29T09:28:21;100211.81;;;23.49;23.25
61205;BME280;47068;55.780;37.520;2023-05-29T09:34:01;100209.72;;;23.10;23.79
61205;BME280;47068;55.780;37.520;2023-05-29T09:36:27;100197.56;;;23.12;22.50
61205;BME280;47068;55.780;37.520;2023-05-29T09:38:52;100201.94;;;23.13;22.03
61205;BME280;47068;55.780;37.520;2023-05-29T09:41:21;100201.72;;;22.73;22.69
61205;BME280;47068;55.780;37.520;2023-05-29T09:43:50;100193.00;;;22.53;22.40
61205;BME280;47068;55.780;37.520;2023-05-29T09:46:16;100198.44;;;22.35;22.62
61205;BME280;47068;55.780;37.520;2023-05-29T09:48:45;100185.19;;;22.27;23.61
61205;BME280;47068;55.780;37.520;2023-05-29T09:51:23;100200.16;;;22.48;24.45
61205;BME280;47068;55.780;37.520;2023-05-29T09:53:49;100192.81;;;22.66;24.94
61205;BME280;47068;55.780;37.520;2023-05-29T09:56:22;100191.13;;;22.84;25.08
61205;BME280;47068;55.780;37.520;2023-05-29T09:58:51;100195.41;;;23.03;25.04
61205;BME280;47068;55.780;37.520;2023-05-29T10:01:16;100183.28;;;23.05;23.85
61205;BME280;47068;55.780;37.520;2023-05-29T10:03:42;100186.31;;;22.97;22.61
61205;BME280;47068;55.780;37.520;2023-05-29T10:06:11;100184.75;;;22.78;23.64
61205;BME280;47068;55.780;37.520;2023-05-29T10:08:45;100170.28;;;22.66;23.33
61205;BME280;47068;55.780;37.520;2023-05-29T10:11:14;100184.13;;;22.76;24.01
61205;BME280;47068;55.780;37.520;2023-05-29T10:13:45;100165.69;;;22.66;24.06
61205;BME280;47068;55.780;37.520;2023-05-29T10:16:15;100174.66;;;22.67;23.15
61205;BME280;47068;55.780;37.520;2023-05-29T10:18:47;100175.00;;;22.59;24.36
61205;BME280;47068;55.780;37.520;2023-05-29T10:21:18;100181.19;;;22.77;23.83
61205;BME280;47068;55.780;37.520;2023-05-29T10:23:47;100174.94;;;22.77;23.91
61205;BME280;47068;55.780;37.520;2023-05-29T10:26:22;100177.13;;;22.68;24.24
61205;BME280;47068;55.780;37.520;2023-05-29T10:29:05;100182.31;;;22.70;24.47
61205;BME280;47068;55.780;37.520;2023-05-29T10:31:43;100177.34;;;22.85;24.19
61205;BME280;47068;55.780;37.520;2023-05-29T10:37:22;100169.78;;;22.87;24.51
61205;BME280;47068;55.780;37.520;2023-05-29T10:39:51;100168.88;;;22.93;24.42
61205;BME280;47068;55.780;37.520;2023-05-29T10:45:00;100166.81;;;22.77;24.19
61205;BME280;47068;55.780;37.520;2023-05-29T10:47:26;100160.78;;;22.75;24.05
61205;BME280;47068;55.780;37.520;2023-05-29T10:49:52;100162.28;;;22.71;23.97
61205;BME280;47068;55.780;37.520;2023-05-29T10:52:18;100157.00;;;22.76;21.65
61205;BME280;47068;55.780;37.520;2023-05-29T10:54:51;100159.44;;;22.66;22.52
61205;BME280;47068;55.780;37.520;2023-05-29T10:57:18;100148.47;;;22.61;22.78
61205;BME280;47068;55.780;37.520;2023-05-29T10:59:45;100156.19;;;22.75;22.81
61205;BME280;47068;55.780;37.520;2023-05-29T11:02:11;100158.63;;;22.65;23.01
61205;BME280;47068;55.780;37.520;2023-05-29T11:04:36;100158.22;;;22.62;22.96
61205;BME280;47068;55.780;37.520;2023-05-29T11:07:02;100159.66;;;22.64;23.86
61205;BME280;47068;55.780;37.520;2023-05-29T11:09:38;100155.53;;;22.62;23.33
61205;BME280;47068;55.780;37.520;2023-05-29T11:12:21;100151.09;;;22.67;23.17
61205;BME280;47068;55.780;37.520;2023-05-29T11:15:03;100151.63;;;22.58;22.19
61205;BME280;47068;55.780;37.520;2023-05-29T11:20:08;100151.97;;;22.61;23.49
61205;BME280;47068;55.780;37.520;2023-05-29T11:25:21;100134.44;;;22.64;23.50
61205;BME280;47068;55.780;37.520;2023-05-29T11:27:46;100144.44;;;22.63;23.58
61205;BME280;47068;55.780;37.520;2023-05-29T11:30:12;100134.66;;;22.62;22.75
61205;BME280;47068;55.780;37.520;2023-05-29T11:32:38;100138.19;;;22.63;23.31
61205;BME280;47068;55.780;37.520;2023-05-29T11:35:08;100126.78;;;22.61;23.59
61205;BME280;47068;55.780;37.520;2023-05-29T11:37:43;100133.81;;;22.62;24.10
61205;BME280;47068;55.780;37.520;2023-05-29T11:40:12;100122.16;;;22.61;23.70
61205;BME280;47068;55.780;37.520;2023-05-29T11:42:45;100126.53;;;22.62;23.71
61205;BME280;47068;55.780;37.520;2023-05-29T11:45:18;100118.75;;;22.66;24.52
61205;BME280;47068;55.780;37.520;2023-05-29T11:50:20;100111.97;;;22.33;23.81
61205;BME280;47068;55.780;37.520;2023-05-29T11:52:46;100111.06;;;22.21;23.90
61205;BME280;47068;55.780;37.520;2023-05-29T11:55:12;100109.88;;;22.17;24.04
61205;BME280;47068;55.780;37.520;2023-05-29T11:57:37;100111.38;;;22.13;24.77
61205;BME280;47068;55.780;37.520;2023-05-29T12:00:03;100112.72;;;22.22;25.28
61205;BME280;47068;55.780;37.520;2023-05-29T12:02:31;100111.69;;;22.35;25.16
61205;BME280;47068;55.780;37.520;2023-05-29T12:05:03;100108.22;;;22.46;25.13
61205;BME280;47068;55.780;37.520;2023-05-29T12:07:29;100101.75;;;22.47;24.76
61205;BME280;47068;55.780;37.520;2023-05-29T12:09:55;100105.25;;;22.48;24.81
61205;BME280;47068;55.780;37.520;2023-05-29T12:12:23;100101.38;;;22.44;25.33
61205;BME280;47068;55.780;37.520;2023-05-29T12:14:52;100095.84;;;22.50;25.15
61205;BME280;47068;55.780;37.520;2023-05-29T12:17:19;100100.31;;;22.45;24.36
61205;BME280;47068;55.780;37.520;2023-05-29T12:19:46;100089.13;;;22.11;24.00
61205;BME280;47068;55.780;37.520;2023-05-29T12:22:11;100093.78;;;22.04;24.45
61205;BME280;47068;55.780;37.520;2023-05-29T12:24:37;100098.38;;;22.04;24.11
61205;BME280;47068;55.780;37.520;2023-05-29T12:27:05;100103.50;;;22.12;24.59
61205;BME280;47068;55.780;37.520;2023-05-29T12:29:35;100098.66;;;22.14;24.40
61205;BME280;47068;55.780;37.520;2023-05-29T12:32:01;100091.09;;;22.04;23.55
61205;BME280;47068;55.780;37.520;2023-05-29T12:34:26;100094.53;;;22.11;24.10
61205;BME280;47068;55.780;37.520;2023-05-29T12:36:52;100092.69;;;22.23;24.77
61205;BME280;47068;55.780;37.520;2023-05-29T12:39:17;100083.84;;;22.28;24.59
61205;BME280;47068;55.780;37.520;2023-05-29T12:41:43;100083.84;;;22.28;24.26
61205;BME280;47068;55.780;37.520;2023-05-29T12:44:08;100084.69;;;22.28;24.59
61205;BME280;47068;55.780;37.520;2023-05-29T12:46:41;100076.78;;;22.27;24.06
61205;BME280;47068;55.780;37.520;2023-05-29T12:49:17;100060.63;;;22.20;23.19
61205;BME280;47068;55.780;37.520;2023-05-29T12:51:48;100062.59;;;22.13;23.89
61205;BME280;47068;55.780;37.520;2023-05-29T12:54:14;100083.13;;;22.21;24.21
61205;BME280;47068;55.780;37.520;2023-05-29T12:56:40;100070.56;;;22.26;24.24
61205;BME280;47068;55.780;37.520;2023-05-29T12:59:06;100084.19;;;22.20;25.35
61205;BME280;47068;55.780;37.520;2023-05-29T13:01:32;100054.22;;;22.03;25.48
61205;BME280;47068;55.780;37.520;2023-05-29T13:03:58;100083.00;;;22.16;25.28
61205;BME280;47068;55.780;37.520;2023-05-29T13:06:23;100047.50;;;22.06;25.37
61205;BME280;47068;55.780;37.520;2023-05-29T13:08:49;100085.63;;;22.22;25.15
61205;BME280;47068;55.780;37.520;2023-05-29T13:11:14;100063.06;;;22.10;25.12
61205;BME280;47068;55.780;37.520;2023-05-29T13:13:40;100083.97;;;22.21;25.20
61205;BME280;47068;55.780;37.520;2023-05-29T13:16:06;100072.53;;;22.19;25.66